CheckWX is a tool to help pilots better visualize weather data.  It is not intended as a substitute for an official pre-flight weather briefing.

05:30:55 UTC

KMAO METAR
Marion County Airport
Marion, South Carolina, USA
Current

16 mins ago

KMAO 080515Z AUTO 05006KT 10SM CLR 05/00 A3040 RMK AO2
Observed
Dec-8 @ 05:15 UTC
Wind
  • 050° at 6 KTS
Visibility
10 SM
Flight Rules
VFR
Cloud Levels
  • Clear skies
Temperature
C / 41°F
Dewpoint
C / 32°F
Humidity
70%
Altimeter
30.4" Hg
Pressure
1029.42 hPa
Previous

36 mins ago

KMAO 080455Z AUTO 05007KT 10SM CLR 05/00 A3040 RMK AO2
Observed
Dec-8 @ 04:55 UTC
Wind
  • 050° at 7 KTS
Visibility
10 SM
Flight Rules
VFR
Cloud Levels
  • Clear skies
Temperature
C / 41°F
Dewpoint
C / 32°F
Humidity
70%
Altimeter
30.4" Hg
Pressure
1029.42 hPa
Previous

56 mins ago

KMAO 080435Z AUTO 04007KT 10SM CLR 05/01 A3040 RMK AO2
Observed
Dec-8 @ 04:35 UTC
Wind
  • 040° at 7 KTS
Visibility
10 SM
Flight Rules
VFR
Cloud Levels
  • Clear skies
Temperature
C / 41°F
Dewpoint
C / 34°F
Humidity
76%
Altimeter
30.4" Hg
Pressure
1029.42 hPa